Bellevue, NE (68123)

9:34 AM CST on December 06, 2016 (GMT -0600)
Southern Oaks - SW Bellevue | | Change Station

Elev 1033 ft 41.13 °N, 95.95 °W | Updated 7 seconds ago

Clear
Clear
24.8 °F
Feels Like 19 °F
N
5.0
Wind Variable Wind from West
Gusts 8.0 mph

Today
High -- | Low -- °F
--% Chance of Precip.
Yesterday
High -- | Low -- °F
Precip. -- in
Pressure 30.06 in
Visibility 10.0 miles
Clouds Clear
Windchill 19 °F
Dew Point 10 °F
Humidity 53%
Rainfall 0.00 in
Snow Depth Not available.
7:35 AM 4:55 PM
Waxing Crescent, 42% visible
METAR KOFF 061458Z AUTO 31011KT 10SM CLR M04/M11 A3002 RMK AO2 SLP180 T10421106 52015
Pressure 30.06 in
Visibility 10.0 miles
Clouds Clear
Windchill 19 °F
Dew Point 10 °F
Humidity 53%
Rainfall 0.00 in
Snow Depth Not available.
7:35 AM 4:55 PM
Waxing Crescent, 42% visible
METAR KOFF 061458Z AUTO 31011KT 10SM CLR M04/M11 A3002 RMK AO2 SLP180 T10421106 52015

10-Day Weather Forecast

Almanac

Astronomy

Dec. 06, 2016 Rise Set
Actual Time
Civil Twilight
Nautical Twilight
Astronomical Twilight
Moon
Length of Visible Light
Length of Day
Tomorrow will be .
, % of the Moon is Illuminated

Today's Extremes

State Highs State Lows

Community

WunderPhotos

Upload Photos

1,955,957 photos uploaded!

WunderBlog® & News

Nearby

Air Quality

  Air Quality AQ Index Pollutant
Not available.

Snow Depth

Station Depth Elevation

Earthquake Activity

City Distance Mag. Time & Date
Minimum magnitude displayed is 2.5.

Coastal Water Temperatures

Place Temperature

Stations

Nearby Weather Stations

Station Location Temp. Windchill Dew Point Humidity Wind Precip. Elev Updated Type
                   

Watches & Warnings

There are currently no watches in effect.